Map

Track Data

SID SEASON NUMBER BASIN SUBBASIN NAME ISO_TIME NATURE LAT LON WMO_WIND WMO_PRES WMO_AGENCY TRACK_TYPE DIST2LAND LANDFALL IFLAG USA_AGENCY USA_ATCF_ID USA_LAT USA_LON USA_RECORD USA_STATUS USA_WIND USA_PRES USA_SSHS USA_R34_NE USA_R34_SE USA_R34_SW USA_R34_NW USA_R50_NE USA_R50_SE USA_R50_SW USA_R50_NW USA_R64_NE USA_R64_SE USA_R64_SW USA_R64_NW USA_POCI USA_ROCI USA_RMW USA_EYE TOKYO_LAT TOKYO_LON TOKYO_GRADE TOKYO_WIND TOKYO_PRES TOKYO_R50_DIR TOKYO_R50_LONG TOKYO_R50_SHORT TOKYO_R30_DIR TOKYO_R30_LONG TOKYO_R30_SHORT TOKYO_LAND CMA_LAT CMA_LON CMA_CAT CMA_WIND CMA_PRES HKO_LAT HKO_LON HKO_CAT HKO_WIND HKO_PRES NEWDELHI_LAT NEWDELHI_LON NEWDELHI_GRADE NEWDELHI_WIND NEWDELHI_PRES NEWDELHI_CI NEWDELHI_DP NEWDELHI_POCI REUNION_LAT REUNION_LON REUNION_TYPE REUNION_WIND REUNION_PRES REUNION_TNUM REUNION_CI REUNION_RMW REUNION_R34_NE REUNION_R34_SE REUNION_R34_SW REUNION_R34_NW REUNION_R50_NE REUNION_R50_SE REUNION_R50_SW REUNION_R50_NW REUNION_R64_NE REUNION_R64_SE REUNION_R64_SW REUNION_R64_NW BOM_LAT BOM_LON BOM_TYPE BOM_WIND BOM_PRES BOM_TNUM BOM_CI BOM_RMW BOM_R34_NE BOM_R34_SE BOM_R34_SW BOM_R34_NW BOM_R50_NE BOM_R50_SE BOM_R50_SW BOM_R50_NW BOM_R64_NE BOM_R64_SE BOM_R64_SW BOM_R64_NW BOM_ROCI BOM_POCI BOM_EYE BOM_POS_METHOD BOM_PRES_METHOD NADI_LAT NADI_LON NADI_CAT NADI_WIND NADI_PRES WELLINGTON_LAT WELLINGTON_LON WELLINGTON_WIND WELLINGTON_PRES DS824_LAT DS824_LON DS824_STAGE DS824_WIND DS824_PRES TD9636_LAT TD9636_LON TD9636_STAGE TD9636_WIND TD9636_PRES TD9635_LAT TD9635_LON TD9635_WIND TD9635_PRES TD9635_ROCI NEUMANN_LAT NEUMANN_LON NEUMANN_CLASS NEUMANN_WIND NEUMANN_PRES MLC_LAT MLC_LON MLC_CLASS MLC_WIND MLC_PRES USA_GUST BOM_GUST BOM_GUST_PER REUNION_GUST REUNION_GUST_PER USA_SEAHGT USA_SEARAD_NE USA_SEARAD_SE USA_SEARAD_SW USA_SEARAD_NW STORM_SPEED STORM_DIR
1890011S12081 1890 2 SI MM NOT_NAMED 1890-01-11 00:00:00 TS -11.6000 80.7000 main 1960 1960 _________O____ -1 -11.6000 80.7000 TC 7 262
1890011S12081 1890 2 SI MM NOT_NAMED 1890-01-11 03:00:00 TS -11.6526 80.3375 main 1972 1972 _________P____ -1 -11.6526 80.3375 TC 7 262
1890011S12081 1890 2 SI MM NOT_NAMED 1890-01-11 06:00:00 TS -11.7000 80.0000 main 1973 1973 _________O____ -1 -11.7000 80.0000 TC 6 262
1890011S12081 1890 2 SI MM NOT_NAMED 1890-01-11 09:00:00 TS -11.7424 79.7000 main 1974 1974 _________P____ -1 -11.7424 79.7000 TC 6 260
1890011S12081 1890 2 SI MM NOT_NAMED 1890-01-11 12:00:00 TS -11.8000 79.4000 main 1987 1987 _________O____ -1 -11.8000 79.4000 TC 6 257
1890011S12081 1890 2 SI MM NOT_NAMED 1890-01-11 15:00:00 TS -11.8925 79.0575 main 2001 2001 _________P____ -1 -11.8925 79.0575 TC 7 254
1890011S12081 1890 2 SI MM NOT_NAMED 1890-01-11 18:00:00 TS -12.0000 78.7000 main 2016 2016 _________O____ -1 -12.0000 78.7000 TC 7 253
1890011S12081 1890 2 SI MM NOT_NAMED 1890-01-11 21:00:00 TS -12.1000 78.3500 main 2032 2032 _________P____ -1 -12.1000 78.3500 TC 7 254
1890011S12081 1890 2 SI MM NOT_NAMED 1890-01-12 00:00:00 TS -12.2000 78.0000 main 2048 2048 _________O____ -1 -12.2000 78.0000 TC 7 254
1890011S12081 1890 2 SI MM NOT_NAMED 1890-01-12 03:00:00 TS -12.2925 77.6425 main 2066 2066 _________P____ -1 -12.2925 77.6425 TC 7 254
1890011S12081 1890 2 SI MM NOT_NAMED 1890-01-12 06:00:00 TS -12.4000 77.3000 main 2082 2082 _________O____ -1 -12.4000 77.3000 TC 7 248
1890011S12081 1890 2 SI MM NOT_NAMED 1890-01-12 09:00:00 TS -12.5500 76.9850 main 2099 2099 _________P____ -1 -12.5500 76.9850 TC 7 243
1890011S12081 1890 2 SI MM NOT_NAMED 1890-01-12 12:00:00 TS -12.7000 76.7000 main 2128 2128 _________O____ -1 -12.7000 76.7000 TC 6 245
1890011S12081 1890 2 SI MM NOT_NAMED 1890-01-12 15:00:00 TS -12.8000 76.4424 main 2146 2126 _________P____ -1 -12.8000 76.4424 TC 5 248
1890011S12081 1890 2 SI MM NOT_NAMED 1890-01-12 18:00:00 TS -12.9000 76.2000 main 2126 2102 _________O____ -1 -12.9000 76.2000 TC 5 244
1890011S12081 1890 2 SI MM NOT_NAMED 1890-01-12 21:00:00 TS -13.0350 75.9575 main 2102 2063 _________P____ -1 -13.0350 75.9575 TC 6 238
1890011S12081 1890 2 SI MM NOT_NAMED 1890-01-13 00:00:00 TS -13.2000 75.7000 main 2063 2024 _________O____ -1 -13.2000 75.7000 TC 6 236
1890011S12081 1890 2 SI MM NOT_NAMED 1890-01-13 03:00:00 TS -13.3925 75.4075 main 2024 1985 _________P____ -1 -13.3925 75.4075 TC 7 236
1890011S12081 1890 2 SI MM NOT_NAMED 1890-01-13 06:00:00 TS -13.6000 75.1000 main 1985 1946 _________O____ -1 -13.6000 75.1000 TC 7 235
1890011S12081 1890 2 SI MM NOT_NAMED 1890-01-13 09:00:00 TS -13.8075 74.7925 main 1946 1908 _________P____ -1 -13.8075 74.7925 TC 7 236
1890011S12081 1890 2 SI MM NOT_NAMED 1890-01-13 12:00:00 TS -14.0000 74.5000 main 1908 1873 _________O____ -1 -14.0000 74.5000 TC 6 238
1890011S12081 1890 2 SI MM NOT_NAMED 1890-01-13 15:00:00 TS -14.1500 74.2349 main 1873 1845 _________P____ -1 -14.1500 74.2349 TC 6 238
1890011S12081 1890 2 SI MM NOT_NAMED 1890-01-13 18:00:00 TS -14.3000 74.0000 main 1845 1816 _________O____ -1 -14.3000 74.0000 TC 5 230
1890011S12081 1890 2 SI MM NOT_NAMED 1890-01-13 21:00:00 TS -14.4999 73.8000 main 1816 1787 _________P____ -1 -14.4999 73.8000 TC 6 224
1890011S12081 1890 2 SI MM NOT_NAMED 1890-01-14 00:00:00 TS -14.7000 73.6000 main 1787 1763 _________O____ -1 -14.7000 73.6000 TC 6 231
1890011S12081 1890 2 SI MM NOT_NAMED 1890-01-14 03:00:00 TS -14.8575 73.3500 main 1749 1725 _________P____ -1 -14.8575 73.3500 TC 6 238
1890011S12081 1890 2 SI MM NOT_NAMED 1890-01-14 06:00:00 TS -15.0000 73.1000 main 1725 1701 _________O____ -1 -15.0000 73.1000 TC 5 237
1890011S12081 1890 2 SI MM NOT_NAMED 1890-01-14 09:00:00 TS -15.1425 72.8924 main 1701 1672 _________P____ -1 -15.1425 72.8924 TC 5 232
1890011S12081 1890 2 SI MM NOT_NAMED 1890-01-14 12:00:00 TS -15.3000 72.7000 main 1672 1644 _________O____ -1 -15.3000 72.7000 TC 5 227
1890011S12081 1890 2 SI MM NOT_NAMED 1890-01-14 15:00:00 TS -15.4925 72.5000 main 1644 1616 _________P____ -1 -15.4925 72.5000 TC 6 224
1890011S12081 1890 2 SI MM NOT_NAMED 1890-01-14 18:00:00 TS -15.7000 72.3000 main 1616 1588 _________O____ -1 -15.7000 72.3000 TC 5 223
1890011S12081 1890 2 SI MM NOT_NAMED 1890-01-14 21:00:00 TS -15.8849 72.1149 main 1588 1561 _________P____ -1 -15.8849 72.1149 TC 6 224
1890011S12081 1890 2 SI MM NOT_NAMED 1890-01-15 00:00:00 TS -16.1000 71.9000 main 1561 1519 _________O____ -1 -16.1000 71.9000 TC 7 224
1890011S12081 1890 2 SI MM NOT_NAMED 1890-01-15 03:00:00 TS -16.3850 71.6150 main 1519 1478 _________P____ -1 -16.3850 71.6150 TC 8 224
1890011S12081 1890 2 SI MM NOT_NAMED 1890-01-15 06:00:00 TS -16.7000 71.3000 main 1478 1438 _________O____ -1 -16.7000 71.3000 TC 9 224
1890011S12081 1890 2 SI MM NOT_NAMED 1890-01-15 09:00:00 TS -17.0000 70.9924 main 1438 1398 _________P____ -1 -17.0000 70.9924 TC 8 224
1890011S12081 1890 2 SI MM NOT_NAMED 1890-01-15 12:00:00 TS -17.3000 70.7000 main 1398 1368 _________O____ -1 -17.3000 70.7000 TC 8 222
1890011S12081 1890 2 SI MM NOT_NAMED 1890-01-15 15:00:00 TS -17.5924 70.4423 main 1358 1329 _________P____ -1 -17.5924 70.4423 TC 8 218
1890011S12081 1890 2 SI MM NOT_NAMED 1890-01-15 18:00:00 TS -17.9000 70.2000 main 1329 1301 _________O____ -1 -17.9000 70.2000 TC 8 215
1890011S12081 1890 2 SI MM NOT_NAMED 1890-01-15 21:00:00 TS -18.2199 69.9721 main 1301 1261 _________P____ -1 -18.2199 69.9721 TC 9 214
1890011S12081 1890 2 SI MM NOT_NAMED 1890-01-16 00:00:00 TS -18.6000 69.7000 main 1261 1211 _________O____ -1 -18.6000 69.7000 TC 11 215
1890011S12081 1890 2 SI MM NOT_NAMED 1890-01-16 03:00:00 TS -19.0850 69.3226 main 1211 1162 _________P____ -1 -19.0850 69.3226 TC 13 217
1890011S12081 1890 2 SI MM NOT_NAMED 1890-01-16 06:00:00 TS -19.6000 68.9000 main 1162 1117 _________O____ -1 -19.6000 68.9000 TC 13 219
1890011S12081 1890 2 SI MM NOT_NAMED 1890-01-16 09:00:00 TS -20.0500 68.4848 main 1117 1073 _________P____ -1 -20.0500 68.4848 TC 12 220
1890011S12081 1890 2 SI MM NOT_NAMED 1890-01-16 12:00:00 TS -20.5000 68.1000 main 1073 1042 _________O____ -1 -20.5000 68.1000 TC 12 215
1890011S12081 1890 2 SI MM NOT_NAMED 1890-01-16 15:00:00 TS -20.9924 67.7773 main 1043 1015 _________P____ -1 -20.9924 67.7773 TC 12 209
1890011S12081 1890 2 SI MM NOT_NAMED 1890-01-16 18:00:00 TS -21.5000 67.5000 main 1016 999 _________O____ -1 -21.5000 67.5000 TC 11 206
1890011S12081 1890 2 SI MM NOT_NAMED 1890-01-16 21:00:00 TS -22.0026 67.2453 main 992 980 _________P____ -1 -22.0026 67.2453 TC 11 205
1890011S12081 1890 2 SI MM NOT_NAMED 1890-01-17 00:00:00 TS -22.5000 67.0000 main 983 _________O____ -1 -22.5000 67.0000 TC 11 205

About IBTrACS Database

This database is a web-friendly format of International Best Track Archive for Climate Stewardship (IBTrACS), a global best track data archive curated by NOAA dating back to 1842.

Updated: 2021-12-03